createdAt,value
2018-05-17T00:00:32.767Z,32.30
2018-05-17T00:03:01.990Z,28.47
2018-05-17T00:05:29.486Z,28.50
2018-05-17T00:07:57.017Z,27.13
2018-05-17T00:10:24.471Z,30.60
2018-05-17T00:12:51.919Z,20.80
2018-05-17T00:15:19.420Z,27.07
2018-05-17T00:17:46.879Z,30.73
2018-05-17T00:20:14.337Z,27.80
2018-05-17T00:22:41.900Z,26.87
2018-05-17T00:25:09.376Z,25.87
2018-05-17T00:27:37.615Z,33.00
2018-05-17T00:30:05.092Z,22.00
2018-05-17T00:32:32.566Z,29.00
2018-05-17T00:35:00.773Z,25.17
2018-05-17T00:37:28.236Z,23.77
2018-05-17T00:39:55.695Z,33.00
2018-05-17T00:42:23.197Z,25.37
2018-05-17T00:44:50.672Z,25.37
2018-05-17T00:47:18.922Z,24.67
2018-05-17T00:49:46.417Z,26.03
2018-05-17T00:52:14.652Z,27.00
2018-05-17T00:54:42.105Z,28.60
2018-05-17T00:57:09.581Z,23.60
2018-05-17T00:59:37.805Z,25.67
2018-05-17T01:02:05.269Z,28.23
2018-05-17T01:04:32.748Z,30.23
2018-05-17T01:07:00.207Z,30.37
2018-05-17T01:09:27.902Z,21.63
2018-05-17T01:11:56.135Z,24.43
2018-05-17T01:14:23.714Z,25.33
2018-05-17T01:16:51.279Z,29.73
2018-05-17T01:19:18.776Z,24.70
2018-05-17T01:21:46.273Z,32.40
2018-05-17T01:24:13.744Z,22.63
2018-05-17T01:26:41.218Z,29.03
2018-05-17T01:29:09.487Z,17.97
2018-05-17T01:31:37.023Z,20.90
2018-05-17T01:34:04.498Z,25.40
2018-05-17T01:36:31.952Z,27.47
2018-05-17T01:38:59.431Z,27.90
2018-05-17T01:41:27.679Z,27.37
2018-05-17T01:43:55.128Z,30.97
2018-05-17T01:46:22.646Z,27.53
2018-05-17T01:48:50.163Z,29.77
2018-05-17T01:51:17.640Z,27.47
2018-05-17T01:53:45.899Z,24.47
2018-05-17T01:56:14.130Z,24.47
2018-05-17T01:58:41.594Z,17.57
2018-05-17T02:01:09.075Z,29.17
2018-05-17T02:03:36.614Z,23.30
2018-05-17T02:06:04.103Z,31.77
2018-05-17T02:08:31.660Z,22.83
2018-05-17T02:10:59.123Z,27.50
2018-05-17T02:13:27.366Z,27.33
2018-05-17T02:15:54.810Z,32.37
2018-05-17T02:18:22.302Z,22.83
2018-05-17T02:20:51.293Z,25.10
2018-05-17T02:23:18.857Z,26.23
2018-05-17T02:25:46.334Z,26.17
2018-05-17T02:28:14.595Z,28.40
2018-05-17T02:30:42.138Z,29.83
2018-05-17T02:33:09.711Z,18.33
2018-05-17T02:35:37.267Z,22.10
2018-05-17T02:38:04.724Z,38.43
2018-05-17T02:40:32.284Z,20.90
2018-05-17T02:42:59.839Z,21.03
2018-05-17T02:45:27.320Z,27.30
2018-05-17T02:47:55.575Z,26.70
2018-05-17T02:50:23.051Z,28.03
2018-05-17T02:52:51.255Z,23.10
2018-05-17T02:55:18.744Z,30.83
2018-05-17T02:57:46.224Z,33.40
2018-05-17T03:00:13.759Z,27.40
2018-05-17T03:02:41.217Z,18.83
2018-05-17T03:05:08.696Z,27.27
2018-05-17T03:07:36.951Z,23.63
2018-05-17T03:10:04.415Z,29.00
2018-05-17T03:12:31.891Z,26.60
2018-05-17T03:14:59.450Z,37.33
2018-05-17T03:17:27.691Z,34.20
2018-05-17T03:19:55.179Z,35.53
2018-05-17T03:22:23.399Z,38.03
2018-05-17T03:24:50.908Z,33.77
2018-05-17T03:27:19.234Z,34.30
2018-05-17T03:29:46.788Z,32.60
2018-05-17T03:32:14.223Z,29.27
2018-05-17T03:34:41.676Z,34.97
2018-05-17T03:37:10.080Z,34.37
2018-05-17T03:39:37.524Z,34.87
2018-05-17T03:42:04.994Z,41.60
2018-05-17T03:44:32.480Z,33.40
2018-05-17T03:46:59.927Z,39.93
2018-05-17T03:49:27.475Z,28.27
2018-05-17T03:51:54.952Z,36.93
2018-05-17T03:54:22.439Z,35.73
2018-05-17T03:56:49.914Z,34.87
2018-05-17T03:59:18.313Z,30.40
2018-05-17T04:01:57.578Z,31.13
2018-05-17T04:04:37.038Z,35.00
2018-05-17T04:07:04.580Z,35.47
2018-05-17T04:09:32.060Z,31.20
2018-05-17T04:11:59.534Z,33.67
2018-05-17T04:14:27.773Z,31.40
2018-05-17T04:16:55.229Z,38.80
2018-05-17T04:19:23.616Z,33.43
2018-05-17T04:21:51.070Z,39.00
2018-05-17T04:24:20.098Z,32.50
2018-05-17T04:26:48.342Z,43.90
2018-05-17T04:29:15.846Z,39.73
2018-05-17T04:31:43.270Z,34.93
2018-05-17T04:34:10.820Z,38.87
2018-05-17T04:36:38.269Z,27.10
2018-05-17T04:39:05.747Z,31.40
2018-05-17T04:41:33.993Z,33.53
2018-05-17T04:44:01.466Z,37.07
2018-05-17T04:46:30.431Z,32.70
2018-05-17T04:48:58.021Z,40.20
2018-05-17T04:51:25.481Z,36.00
2018-05-17T04:53:53.037Z,32.10
2018-05-17T04:56:20.599Z,37.20
2018-05-17T04:58:49.676Z,32.37
2018-05-17T05:01:17.131Z,38.07
2018-05-17T05:03:44.605Z,37.77
2018-05-17T05:06:12.072Z,36.73
2018-05-17T05:08:40.324Z,41.30
2018-05-17T05:11:07.799Z,37.97
2018-05-17T05:13:35.341Z,37.53
2018-05-17T05:16:02.886Z,30.60
2018-05-17T05:18:30.386Z,46.40
2018-05-17T05:20:58.643Z,31.87
2018-05-17T05:23:26.113Z,35.20
2018-05-17T05:25:53.593Z,36.87
2018-05-17T05:28:21.166Z,34.00
2018-05-17T05:30:48.654Z,29.00
2018-05-17T05:33:16.227Z,32.33
2018-05-17T05:35:43.715Z,38.57
2018-05-17T05:38:11.972Z,44.63
2018-05-17T05:40:39.445Z,38.33
2018-05-17T05:43:07.711Z,29.53
2018-05-17T05:45:36.133Z,37.57
2018-05-17T05:48:03.609Z,31.70
2018-05-17T05:50:31.067Z,34.03
2018-05-17T05:52:58.533Z,37.90
2018-05-17T05:55:25.992Z,35.47
2018-05-17T05:57:53.449Z,32.27
2018-05-17T06:00:20.922Z,35.93
2018-05-17T06:02:48.376Z,39.60
2018-05-17T06:05:15.876Z,37.17
2018-05-17T06:07:43.447Z,47.50
2018-05-17T06:10:10.889Z,47.40
2018-05-17T06:12:38.393Z,38.57
2018-05-17T06:15:06.644Z,43.33
2018-05-17T06:17:34.094Z,50.10
2018-05-17T06:20:01.558Z,43.13
2018-05-17T06:22:29.003Z,41.70
2018-05-17T06:24:56.465Z,45.00
2018-05-17T06:27:23.947Z,41.57
2018-05-17T06:29:51.400Z,50.27
2018-05-17T06:32:18.873Z,43.47
2018-05-17T06:34:46.332Z,45.53
2018-05-17T06:37:13.799Z,46.30
2018-05-17T06:39:41.279Z,47.10
2018-05-17T06:42:09.551Z,54.03
2018-05-17T06:44:37.784Z,46.10
2018-05-17T06:47:05.248Z,42.73
2018-05-17T06:49:36.162Z,44.27
2018-05-17T06:52:03.672Z,49.63
2018-05-17T06:54:31.887Z,41.37
2018-05-17T06:56:59.333Z,50.17
2018-05-17T06:59:26.854Z,54.27
2018-05-17T07:01:54.381Z,43.63
2018-05-17T07:04:21.839Z,45.70
2018-05-17T07:06:49.328Z,47.67
2018-05-17T07:09:16.798Z,43.87
2018-05-17T07:11:45.040Z,53.90
2018-05-17T07:14:12.508Z,46.33
2018-05-17T07:16:39.968Z,43.53
2018-05-17T07:19:07.894Z,43.90
2018-05-17T07:21:35.350Z,43.90
2018-05-17T07:24:02.895Z,55.67
2018-05-17T07:26:30.303Z,60.87
2018-05-17T07:28:57.767Z,54.70
2018-05-17T07:31:25.327Z,48.07
2018-05-17T07:33:52.731Z,49.73
2018-05-17T07:36:20.187Z,53.97
2018-05-17T07:38:47.647Z,55.23
2018-05-17T07:41:15.127Z,56.27
2018-05-17T07:43:42.615Z,48.73
2018-05-17T07:46:10.062Z,50.17
2018-05-17T07:48:37.628Z,57.00
2018-05-17T07:51:05.180Z,53.77
2018-05-17T07:53:32.659Z,58.57
2018-05-17T07:56:00.911Z,54.00
2018-05-17T07:58:28.386Z,64.37
2018-05-17T08:00:56.653Z,62.50
2018-05-17T08:03:24.134Z,63.60
2018-05-17T08:05:52.380Z,66.27
2018-05-17T08:08:19.945Z,54.87
2018-05-17T08:10:47.419Z,57.20
2018-05-17T08:13:15.637Z,51.60
2018-05-17T08:15:43.119Z,60.13
2018-05-17T08:18:10.571Z,57.07
2018-05-17T08:20:38.034Z,57.50
2018-05-17T08:23:05.489Z,57.50
2018-05-17T08:25:33.055Z,54.80
2018-05-17T08:28:00.528Z,55.43
2018-05-17T08:30:28.736Z,53.73
2018-05-17T08:32:56.427Z,57.90
2018-05-17T08:35:23.870Z,52.00
2018-05-17T08:37:52.339Z,55.70
2018-05-17T08:40:20.700Z,47.57
2018-05-17T08:42:48.157Z,45.77
2018-05-17T08:45:15.634Z,45.30
2018-05-17T08:47:43.113Z,46.90
2018-05-17T08:50:10.618Z,49.77
2018-05-17T08:52:38.130Z,45.43
2018-05-17T08:55:05.608Z,40.23
2018-05-17T08:57:33.055Z,46.40
2018-05-17T09:00:00.542Z,40.10
2018-05-17T09:02:28.790Z,40.60
2018-05-17T09:04:56.236Z,34.77
2018-05-17T09:07:23.695Z,38.00
2018-05-17T09:09:51.205Z,34.20
2018-05-17T09:12:18.682Z,34.70
2018-05-17T09:14:46.154Z,37.60
2018-05-17T09:17:13.614Z,38.83
2018-05-17T09:19:41.872Z,35.40
2018-05-17T09:22:09.405Z,35.13
2018-05-17T09:24:36.892Z,40.03
2018-05-17T09:27:04.345Z,35.43
2018-05-17T09:29:31.803Z,36.73
2018-05-17T09:31:59.455Z,33.67
2018-05-17T09:34:26.913Z,38.73
2018-05-17T09:36:54.424Z,28.97
2018-05-17T09:39:21.944Z,30.20
2018-05-17T09:41:49.419Z,27.83
2018-05-17T09:44:16.894Z,23.60
2018-05-17T09:46:44.339Z,24.90
2018-05-17T09:49:11.796Z,21.60
2018-05-17T09:51:39.275Z,17.70
2018-05-17T09:54:06.756Z,29.05
2018-05-17T09:56:34.223Z,21.27
2018-05-17T09:59:01.704Z,23.73
2018-05-17T10:01:29.163Z,21.42
2018-05-17T10:03:56.643Z,23.65
2018-05-17T10:06:24.111Z,24.23
2018-05-17T10:08:51.653Z,23.52
2018-05-17T10:11:19.102Z,27.73
2018-05-17T10:13:46.595Z,23.98
2018-05-17T10:16:14.059Z,27.90
2018-05-17T10:18:42.308Z,25.05
2018-05-17T10:21:09.754Z,20.02
2018-05-17T10:23:37.234Z,26.17
2018-05-17T10:26:05.494Z,22.58
2018-05-17T10:28:32.965Z,31.52
2018-05-17T10:31:01.188Z,25.60
2018-05-17T10:33:28.655Z,25.23
2018-05-17T10:35:56.118Z,27.30
2018-05-17T10:38:23.587Z,28.48
2018-05-17T10:40:51.078Z,22.25
2018-05-17T10:43:19.299Z,19.12
2018-05-17T10:45:46.753Z,21.65
2018-05-17T10:48:14.230Z,30.90
2018-05-17T10:50:41.687Z,23.00
2018-05-17T10:53:09.134Z,28.35
2018-05-17T10:55:36.595Z,21.40
2018-05-17T10:58:04.069Z,22.13
2018-05-17T11:00:31.683Z,26.02
2018-05-17T11:02:59.152Z,21.73
2018-05-17T11:05:26.655Z,19.02
2018-05-17T11:07:54.123Z,18.75
2018-05-17T11:10:22.340Z,25.60
2018-05-17T11:12:49.807Z,18.67
2018-05-17T11:15:17.324Z,25.52
2018-05-17T11:17:44.767Z,24.55
2018-05-17T11:20:12.990Z,23.35
2018-05-17T11:22:40.439Z,27.40
2018-05-17T11:25:07.888Z,18.55
2018-05-17T11:27:35.347Z,25.77
2018-05-17T11:30:02.797Z,19.77
2018-05-17T11:32:30.282Z,21.40
2018-05-17T11:34:57.855Z,23.45
2018-05-17T11:37:25.324Z,24.45
2018-05-17T11:39:52.799Z,20.95
2018-05-17T11:42:21.014Z,20.98
2018-05-17T11:44:48.498Z,20.95
2018-05-17T11:47:15.977Z,22.05
2018-05-17T11:49:43.429Z,21.75
2018-05-17T11:52:11.623Z,22.90
2018-05-17T11:54:39.843Z,16.45
2018-05-17T11:57:07.312Z,19.00
2018-05-17T11:59:34.801Z,16.05
2018-05-17T12:02:02.243Z,18.17
2018-05-17T12:04:29.731Z,20.05
2018-05-17T12:06:57.946Z,21.15
2018-05-17T12:09:25.420Z,23.12
2018-05-17T12:11:52.900Z,26.67
2018-05-17T12:14:20.370Z,20.88
2018-05-17T12:16:48.590Z,24.92
2018-05-17T12:19:16.055Z,22.13
2018-05-17T12:21:43.525Z,18.87
2018-05-17T12:24:10.995Z,25.23
2018-05-17T12:26:38.450Z,17.90
2018-05-17T12:29:05.904Z,25.60
2018-05-17T12:31:33.370Z,20.48
2018-05-17T12:34:00.820Z,19.73
2018-05-17T12:36:28.274Z,16.55
2018-05-17T12:38:55.754Z,20.90
2018-05-17T12:41:23.976Z,21.55
2018-05-17T12:43:51.431Z,22.23
2018-05-17T12:46:18.868Z,16.48
2018-05-17T12:48:46.346Z,19.02
2018-05-17T12:51:13.800Z,21.08
2018-05-17T12:53:41.259Z,18.37
2018-05-17T12:56:08.729Z,21.87
2018-05-17T12:58:36.244Z,14.77
2018-05-17T13:01:03.670Z,17.65
2018-05-17T13:03:31.124Z,18.33
2018-05-17T13:05:58.606Z,21.55
2018-05-17T13:08:26.819Z,20.88
2018-05-17T13:10:54.271Z,23.62
2018-05-17T13:13:21.735Z,22.48
2018-05-17T13:15:49.205Z,24.75
2018-05-17T13:18:16.668Z,16.58
2018-05-17T13:20:44.151Z,21.48
2018-05-17T13:23:11.628Z,21.87
2018-05-17T13:25:39.846Z,26.30
2018-05-17T13:28:07.312Z,17.95
2018-05-17T13:30:34.763Z,19.90
2018-05-17T13:33:02.224Z,20.60
2018-05-17T13:35:29.689Z,23.70
2018-05-17T13:37:57.161Z,22.83
2018-05-17T13:40:24.623Z,27.80
2018-05-17T13:42:52.099Z,21.90
2018-05-17T13:45:20.333Z,23.83
2018-05-17T13:47:47.824Z,30.47
2018-05-17T13:50:15.235Z,25.73
2018-05-17T13:52:42.675Z,26.50
2018-05-17T13:55:10.155Z,21.00
2018-05-17T13:57:37.630Z,18.03
2018-05-17T14:00:05.101Z,23.43
2018-05-17T14:02:33.491Z,19.83
2018-05-17T14:05:00.848Z,17.50
2018-05-17T14:07:29.063Z,22.17
2018-05-17T14:09:56.523Z,22.93
2018-05-17T14:12:24.319Z,23.13
2018-05-17T14:14:51.799Z,18.67
2018-05-17T14:17:20.007Z,18.03
2018-05-17T14:19:47.473Z,19.47
2018-05-17T14:22:14.953Z,18.90
2018-05-17T14:24:42.391Z,20.60
2018-05-17T14:27:09.885Z,19.17
2018-05-17T14:29:37.352Z,23.50
2018-05-17T14:32:05.596Z,20.60
2018-05-17T14:34:33.094Z,22.30
2018-05-17T14:37:00.716Z,17.47
2018-05-17T14:39:28.387Z,17.90
2018-05-17T14:41:55.932Z,19.73
2018-05-17T14:44:23.479Z,20.57
2018-05-17T14:46:51.365Z,16.33
2018-05-17T14:49:19.702Z,20.60
2018-05-17T14:51:47.243Z,26.57
2018-05-17T14:54:14.800Z,13.90
2018-05-17T14:56:43.112Z,21.83
2018-05-17T14:59:10.650Z,24.40
2018-05-17T15:01:38.216Z,25.93
2018-05-17T15:04:05.822Z,23.27
2018-05-17T15:06:34.237Z,24.07
2018-05-17T15:09:01.810Z,24.40
2018-05-17T15:11:29.361Z,25.03
2018-05-17T15:13:56.988Z,20.77
2018-05-17T15:16:24.466Z,25.00
2018-05-17T15:18:52.095Z,24.43
2018-05-17T15:21:19.690Z,20.87
2018-05-17T15:23:47.221Z,18.30
2018-05-17T15:26:14.776Z,21.23
2018-05-17T15:28:42.313Z,17.63
2018-05-17T15:31:09.852Z,20.23
2018-05-17T15:33:37.392Z,16.67
2018-05-17T15:36:04.956Z,18.47
2018-05-17T15:38:32.501Z,17.37
2018-05-17T15:41:00.074Z,19.33
2018-05-17T15:43:27.599Z,16.03
2018-05-17T15:45:55.927Z,17.67
2018-05-17T15:48:24.523Z,18.37
2018-05-17T15:50:52.041Z,17.50
2018-05-17T15:53:19.605Z,17.57
2018-05-17T15:55:47.136Z,17.83
2018-05-17T15:58:14.673Z,19.77
2018-05-17T16:00:42.186Z,19.50
2018-05-17T16:03:09.729Z,20.33
2018-05-17T16:05:38.035Z,15.97
2018-05-17T16:08:05.586Z,17.83
2018-05-17T16:10:33.120Z,20.23
2018-05-17T16:13:00.662Z,14.73
2018-05-17T16:15:28.370Z,15.80
2018-05-17T16:17:55.822Z,18.43
2018-05-17T16:20:23.394Z,14.43
2018-05-17T16:22:50.912Z,15.40
2018-05-17T16:25:18.464Z,20.70
2018-05-17T16:27:46.815Z,22.57
2018-05-17T16:30:14.373Z,20.93
2018-05-17T16:32:41.999Z,18.07
2018-05-17T16:35:09.469Z,18.17
2018-05-17T16:37:37.004Z,20.80
2018-05-17T16:40:04.537Z,18.87
2018-05-17T16:42:32.852Z,18.80
2018-05-17T16:45:00.401Z,20.83
2018-05-17T16:47:27.920Z,13.83
2018-05-17T16:49:56.280Z,16.77
2018-05-17T16:52:23.785Z,16.40
2018-05-17T16:54:51.319Z,17.90
2018-05-17T16:57:19.644Z,16.83
2018-05-17T16:59:47.193Z,18.47
2018-05-17T17:02:14.725Z,17.43
2018-05-17T17:04:43.118Z,21.17
2018-05-17T17:07:10.577Z,17.83
2018-05-17T17:09:38.129Z,20.33
2018-05-17T17:12:06.551Z,22.40
2018-05-17T17:14:34.112Z,28.60
2018-05-17T17:17:01.657Z,17.23
2018-05-17T17:19:29.958Z,20.23
2018-05-17T17:21:57.604Z,23.43
2018-05-17T17:24:25.145Z,21.07
2018-05-17T17:26:52.692Z,21.00
2018-05-17T17:29:20.235Z,22.73
2018-05-17T17:31:47.777Z,23.53
2018-05-17T17:34:15.358Z,22.50
2018-05-17T17:36:42.897Z,19.23
2018-05-17T17:39:11.222Z,24.87
2018-05-17T17:41:38.776Z,22.70
2018-05-17T17:44:06.329Z,20.77
2018-05-17T17:46:33.855Z,17.93
2018-05-17T17:49:01.438Z,26.13
2018-05-17T17:51:29.017Z,21.77
2018-05-17T17:53:56.554Z,23.10
2018-05-17T17:56:24.130Z,16.17
2018-05-17T17:58:51.690Z,18.03
2018-05-17T18:01:19.232Z,22.50
2018-05-17T18:03:46.825Z,21.07
2018-05-17T18:06:14.329Z,25.10
2018-05-17T18:08:42.649Z,22.37
2018-05-17T18:11:10.202Z,24.13
2018-05-17T18:13:37.747Z,21.23
2018-05-17T18:16:05.329Z,16.73
2018-05-17T18:18:34.484Z,22.37
2018-05-17T18:21:03.615Z,15.77
2018-05-17T18:23:31.260Z,24.37
2018-05-17T18:25:58.843Z,20.67
2018-05-17T18:28:26.394Z,24.90
2018-05-17T18:30:53.971Z,22.60
2018-05-17T18:33:22.320Z,21.93
2018-05-17T18:35:49.862Z,26.20
2018-05-17T18:38:18.196Z,22.47
2018-05-17T18:40:45.752Z,21.67
2018-05-17T18:43:13.387Z,22.03
2018-05-17T18:45:40.827Z,24.60
2018-05-17T18:48:08.369Z,27.33
2018-05-17T18:50:35.955Z,21.87
2018-05-17T18:53:03.514Z,23.40
2018-05-17T18:55:31.040Z,22.90
2018-05-17T18:57:59.361Z,26.83
2018-05-17T19:00:26.932Z,25.50
2018-05-17T19:02:55.229Z,20.97
2018-05-17T19:05:22.763Z,22.73
2018-05-17T19:07:50.314Z,24.63
2018-05-17T19:10:17.863Z,25.43
2018-05-17T19:12:45.417Z,24.13
2018-05-17T19:15:13.001Z,19.50
2018-05-17T19:17:40.522Z,22.03
2018-05-17T19:20:08.867Z,17.53
2018-05-17T19:22:37.238Z,24.70
2018-05-17T19:25:04.792Z,17.13
2018-05-17T19:27:32.340Z,23.67
2018-05-17T19:29:59.895Z,29.60
2018-05-17T19:32:27.421Z,17.97
2018-05-17T19:34:54.983Z,21.80
2018-05-17T19:37:22.569Z,20.73
2018-05-17T19:39:50.027Z,25.37
2018-05-17T19:42:17.576Z,25.37
2018-05-17T19:44:45.113Z,27.30
2018-05-17T19:47:12.751Z,23.57
2018-05-17T19:49:40.136Z,20.83
2018-05-17T19:52:07.604Z,24.33
2018-05-17T19:54:35.088Z,17.03
2018-05-17T19:57:02.676Z,18.87
2018-05-17T19:59:30.136Z,23.20
2018-05-17T20:01:57.620Z,20.47
2018-05-17T20:04:25.854Z,22.90
2018-05-17T20:06:53.332Z,26.67
2018-05-17T20:09:21.572Z,24.63
2018-05-17T20:11:49.113Z,28.37
2018-05-17T20:14:16.569Z,20.63
2018-05-17T20:16:44.015Z,23.93
2018-05-17T20:19:11.480Z,21.60
2018-05-17T20:21:38.941Z,20.47
2018-05-17T20:24:06.432Z,26.03
2018-05-17T20:26:33.927Z,20.17
2018-05-17T20:29:02.159Z,24.03
2018-05-17T20:31:29.635Z,29.57
2018-05-17T20:33:57.091Z,22.37
2018-05-17T20:36:24.570Z,22.87
2018-05-17T20:38:52.800Z,25.97
2018-05-17T20:41:20.378Z,22.53
2018-05-17T20:43:48.603Z,27.40
2018-05-17T20:46:16.045Z,21.00
2018-05-17T20:48:43.497Z,23.43
2018-05-17T20:51:10.975Z,23.80
2018-05-17T20:53:38.457Z,26.57
2018-05-17T20:56:05.912Z,19.17
2018-05-17T20:58:33.365Z,20.30
2018-05-17T21:01:00.859Z,21.20
2018-05-17T21:03:28.346Z,25.23
2018-05-17T21:05:55.791Z,22.80
2018-05-17T21:08:24.036Z,27.77
2018-05-17T21:10:51.578Z,24.77
2018-05-17T21:13:19.166Z,24.87
2018-05-17T21:15:46.626Z,27.80
2018-05-17T21:18:14.874Z,23.03
2018-05-17T21:20:42.349Z,24.70
2018-05-17T21:23:10.704Z,23.83
2018-05-17T21:25:38.173Z,26.80
2018-05-17T21:28:05.746Z,28.97
2018-05-17T21:30:33.202Z,20.73
2018-05-17T21:33:00.657Z,25.00
2018-05-17T21:35:28.131Z,20.40
2018-05-17T21:37:56.371Z,29.13
2018-05-17T21:40:23.818Z,31.30
2018-05-17T21:42:51.300Z,29.97
2018-05-17T21:45:18.810Z,27.53
2018-05-17T21:47:46.267Z,32.10
2018-05-17T21:50:13.734Z,28.77
2018-05-17T21:52:41.185Z,27.13
2018-05-17T21:55:08.644Z,31.63
2018-05-17T21:57:36.128Z,26.20
2018-05-17T22:00:03.690Z,28.70
2018-05-17T22:02:31.269Z,21.57
2018-05-17T22:04:58.749Z,22.97
2018-05-17T22:07:27.075Z,20.63
2018-05-17T22:09:55.233Z,21.63
2018-05-17T22:12:22.718Z,25.07
2018-05-17T22:14:50.274Z,35.93
2018-05-17T22:17:17.750Z,30.20
2018-05-17T22:19:45.216Z,23.80
2018-05-17T22:22:13.462Z,25.87
2018-05-17T22:24:40.945Z,25.73
2018-05-17T22:27:08.391Z,36.70
2018-05-17T22:29:37.376Z,25.13
2018-05-17T22:32:04.850Z,28.77
2018-05-17T22:34:32.302Z,21.90
2018-05-17T22:36:59.837Z,30.90
2018-05-17T22:39:27.471Z,28.93
2018-05-17T22:41:54.947Z,26.93
2018-05-17T22:44:22.413Z,29.03
2018-05-17T22:46:49.884Z,29.10
2018-05-17T22:49:17.353Z,28.50
2018-05-17T22:51:44.913Z,28.60
2018-05-17T22:54:12.331Z,30.57
2018-05-17T22:56:51.812Z,27.47
2018-05-17T22:59:20.051Z,21.97
2018-05-17T23:01:47.502Z,29.07
2018-05-17T23:04:14.964Z,27.73
2018-05-17T23:06:42.475Z,23.77
2018-05-17T23:09:09.914Z,19.60
2018-05-17T23:11:38.162Z,25.70
2018-05-17T23:14:05.612Z,25.60
2018-05-17T23:16:33.079Z,26.20
2018-05-17T23:19:01.325Z,26.57
2018-05-17T23:21:28.816Z,29.73
2018-05-17T23:23:56.270Z,28.50
2018-05-17T23:26:23.714Z,21.70
2018-05-17T23:28:51.377Z,28.77
2018-05-17T23:31:18.852Z,24.67
2018-05-17T23:33:46.339Z,21.17
2018-05-17T23:36:14.553Z,28.13
2018-05-17T23:38:42.064Z,31.47
2018-05-17T23:41:22.231Z,29.67
2018-05-17T23:43:49.776Z,24.17
2018-05-17T23:46:18.017Z,33.67
2018-05-17T23:48:46.976Z,28.50
2018-05-17T23:51:14.455Z,21.57
2018-05-17T23:53:41.931Z,24.20
2018-05-17T23:56:09.496Z,27.57
2018-05-17T23:58:36.983Z,30.53
